Terminal Aerodrome Forecast
Issued by NWS Duluth, MN

Home | Current Version | Previous Version | Text Only | Print | Product List | Glossary On
Versions: 1 2 3 4 5 6 7 8 9 10 11 12 13 14 15 16 17 18 19 20 21 22 23 24 25 26 27 28 29 30 31 32 33 34 35
000
FTUS43 KDLH 221100
TAFDLH
TAF
KDLH 221123Z 2212/2312 25005KT P6SM OVC007
     FM221400 24005KT P6SM OVC010
     FM221800 23012G20KT P6SM SCT025 BKN035
     FM230000 23015G24KT P6SM SCT025 BKN035
     FM230600 23014KT P6SM OVC015=

USA.gov is the U.S. government's official web portal to all federal, state and local government web resources and services.